PAUN

Details ICAO PAUN (UNK)
Name Unalakleet
Region USA (Alaska)
Timezone America/Anchorage (UTC-8.0)
Plans Departing 56
Arriving 38
Stats Elevation 68 ft / 21 m (AMSL)
Location 63.886590° -160.796931°
Runways 2
Magnetic Variation 12.022° E
Sunrise 2018-05-25 13:01:37 UTC / 2018-05-25 05:01:37 Local
Sunset 2018-05-26 08:21:35 UTC / 2018-05-26 00:21:35 Local
Advertisement - Login to hide

Runways

ID Width Length Bearing (true) Bearing (mag) Surface Threshold Offset Overrun Length
15 151 ft / 46 m 5,990 ft / 1,826 m 164.15° 152.13° Asphalt 0 ft / 0 m 499 ft / 152 m
26 79 ft / 24 m 1,993 ft / 608 m 278.43° 266.41° Asphalt 0 ft / 0 m 0 ft / 0 m
33 151 ft / 46 m 5,990 ft / 1,826 m 344.16° 332.14° Asphalt 0 ft / 0 m 0 ft / 0 m
8 79 ft / 24 m 1,993 ft / 608 m 98.42° 86.40° Asphalt 0 ft / 0 m 0 ft / 0 m

Map

Weather


0- 5 10 15 20 25 30 35+ Temperature / ° C

Clouds and Precipitation
Forecast for 2018-05-26 00:00 UTC. Updated 3 hours ago

Ground ~20,000 ft ~40,000 ft Winds

METAR

PAUN 260156Z AUTO 28011KT 10SM BKN046 OVC060 06/02 A2974 RMK AO2 SLP073 T00610017

TAF

PAUN 252346Z 2600/2624 31016KT P6SM VCSH BKN040 FM260800 25010KT P6SM SCT050

Frequencies

Recorded 132.25 MHz AWOS
Unicom 123.00 MHz UNK CTAF
Recorded 122.30 MHz Nome FSS
Tower 135.69 MHz Anchorage ARTCC
Warning: Do not use this data for real-world aviation or navigation. No guarantee of current accuracy is given.